sensor_id;sensor_type;location;lat;lon;timestamp;pressure;altitude;pressure_sealevel;temperature;humidity
36502;BME280;25393;46.108;3.390;2023-04-10T00:00:33;98290.88;;;8.25;72.83
36502;BME280;25393;46.108;3.390;2023-04-10T00:03:00;98279.75;;;8.31;73.29
36502;BME280;25393;46.108;3.390;2023-04-10T00:05:28;98284.63;;;8.26;72.99
36502;BME280;25393;46.108;3.390;2023-04-10T00:07:54;98280.47;;;8.23;73.13
36502;BME280;25393;46.108;3.390;2023-04-10T00:10:21;98279.94;;;8.20;73.38
36502;BME280;25393;46.108;3.390;2023-04-10T00:12:47;98283.94;;;8.24;73.90
36502;BME280;25393;46.108;3.390;2023-04-10T00:15:16;98284.94;;;8.23;73.62
36502;BME280;25393;46.108;3.390;2023-04-10T00:17:42;98277.03;;;8.13;73.80
36502;BME280;25393;46.108;3.390;2023-04-10T00:20:09;98284.41;;;8.19;73.90
36502;BME280;25393;46.108;3.390;2023-04-10T00:22:36;98271.59;;;7.97;73.74
36502;BME280;25393;46.108;3.390;2023-04-10T00:25:02;98265.22;;;7.90;74.62
36502;BME280;25393;46.108;3.390;2023-04-10T00:27:29;98274.66;;;7.92;74.25
36502;BME280;25393;46.108;3.390;2023-04-10T00:29:55;98279.09;;;7.92;75.33
36502;BME280;25393;46.108;3.390;2023-04-10T00:32:22;98277.44;;;7.91;74.88
36502;BME280;25393;46.108;3.390;2023-04-10T00:34:49;98273.16;;;7.90;75.11
36502;BME280;25393;46.108;3.390;2023-04-10T00:37:17;98262.19;;;7.85;75.14
36502;BME280;25393;46.108;3.390;2023-04-10T00:39:44;98270.56;;;7.80;75.37
36502;BME280;25393;46.108;3.390;2023-04-10T00:42:10;98269.72;;;7.80;76.23
36502;BME280;25393;46.108;3.390;2023-04-10T00:44:37;98270.03;;;7.77;75.45
36502;BME280;25393;46.108;3.390;2023-04-10T00:47:03;98256.28;;;7.73;76.21
36502;BME280;25393;46.108;3.390;2023-04-10T00:49:31;98266.25;;;7.79;75.57
36502;BME280;25393;46.108;3.390;2023-04-10T00:51:58;98264.34;;;7.72;76.25
36502;BME280;25393;46.108;3.390;2023-04-10T00:54:25;98258.13;;;7.63;76.48
36502;BME280;25393;46.108;3.390;2023-04-10T00:56:52;98268.94;;;7.60;76.55
36502;BME280;25393;46.108;3.390;2023-04-10T00:59:18;98268.69;;;7.53;76.34
36502;BME280;25393;46.108;3.390;2023-04-10T01:01:45;98267.63;;;7.46;77.26
36502;BME280;25393;46.108;3.390;2023-04-10T01:04:11;98257.78;;;7.39;77.45
36502;BME280;25393;46.108;3.390;2023-04-10T01:06:43;98259.16;;;7.43;77.23
36502;BME280;25393;46.108;3.390;2023-04-10T01:09:41;98236.56;;;7.40;77.06
36502;BME280;25393;46.108;3.390;2023-04-10T01:15:07;98243.69;;;7.21;78.00
36502;BME280;25393;46.108;3.390;2023-04-10T01:20:25;98245.50;;;7.20;77.92
36502;BME280;25393;46.108;3.390;2023-04-10T01:23:25;98249.63;;;7.32;78.19
36502;BME280;25393;46.108;3.390;2023-04-10T01:26:00;98230.34;;;7.22;77.75
36502;BME280;25393;46.108;3.390;2023-04-10T01:31:20;98232.16;;;7.31;77.57
36502;BME280;25393;46.108;3.390;2023-04-10T01:33:54;98229.84;;;7.46;77.31
36502;BME280;25393;46.108;3.390;2023-04-10T01:36:26;98231.16;;;7.42;76.31
36502;BME280;25393;46.108;3.390;2023-04-10T01:38:57;98232.06;;;7.50;77.20
36502;BME280;25393;46.108;3.390;2023-04-10T01:41:25;98228.50;;;7.42;77.93
36502;BME280;25393;46.108;3.390;2023-04-10T01:43:54;98219.69;;;7.24;76.10
36502;BME280;25393;46.108;3.390;2023-04-10T01:46:21;98225.00;;;7.04;76.92
36502;BME280;25393;46.108;3.390;2023-04-10T01:48:50;98233.59;;;6.97;77.11
36502;BME280;25393;46.108;3.390;2023-04-10T01:51:19;98230.16;;;6.87;77.50
36502;BME280;25393;46.108;3.390;2023-04-10T01:53:46;98228.50;;;6.76;78.99
36502;BME280;25393;46.108;3.390;2023-04-10T01:56:14;98232.94;;;6.76;79.63
36502;BME280;25393;46.108;3.390;2023-04-10T01:58:41;98228.66;;;6.84;80.20
36502;BME280;25393;46.108;3.390;2023-04-10T02:01:08;98225.31;;;6.73;81.76
36502;BME280;25393;46.108;3.390;2023-04-10T02:03:51;98223.91;;;6.88;81.05
36502;BME280;25393;46.108;3.390;2023-04-10T02:11:53;98215.13;;;7.16;80.14
36502;BME280;25393;46.108;3.390;2023-04-10T02:14:21;98220.34;;;7.26;79.48
36502;BME280;25393;46.108;3.390;2023-04-10T02:16:52;98220.53;;;7.24;78.90
36502;BME280;25393;46.108;3.390;2023-04-10T02:19:19;98202.75;;;7.26;78.35
36502;BME280;25393;46.108;3.390;2023-04-10T02:21:48;98210.19;;;7.40;78.10
36502;BME280;25393;46.108;3.390;2023-04-10T02:24:15;98214.91;;;7.37;78.33
36502;BME280;25393;46.108;3.390;2023-04-10T02:26:49;98214.50;;;7.41;78.44
36502;BME280;25393;46.108;3.390;2023-04-10T02:29:17;98220.72;;;7.40;78.96
36502;BME280;25393;46.108;3.390;2023-04-10T02:31:44;98196.88;;;7.32;78.29
36502;BME280;25393;46.108;3.390;2023-04-10T02:34:11;98213.19;;;7.55;78.62
36502;BME280;25393;46.108;3.390;2023-04-10T02:36:38;98209.28;;;7.49;78.75
36502;BME280;25393;46.108;3.390;2023-04-10T02:39:05;98205.84;;;7.49;78.57
36502;BME280;25393;46.108;3.390;2023-04-10T02:41:33;98211.50;;;7.54;78.48
36502;BME280;25393;46.108;3.390;2023-04-10T02:44:00;98224.09;;;7.70;78.52
36502;BME280;25393;46.108;3.390;2023-04-10T02:46:29;98214.19;;;7.72;77.88
36502;BME280;25393;46.108;3.390;2023-04-10T02:48:56;98210.59;;;7.73;77.91
36502;BME280;25393;46.108;3.390;2023-04-10T02:51:23;98214.44;;;7.78;77.16
36502;BME280;25393;46.108;3.390;2023-04-10T02:53:49;98207.56;;;7.68;77.11
36502;BME280;25393;46.108;3.390;2023-04-10T02:56:18;98212.22;;;7.56;77.48
36502;BME280;25393;46.108;3.390;2023-04-10T02:58:45;98189.38;;;7.37;77.64
36502;BME280;25393;46.108;3.390;2023-04-10T03:01:12;98208.63;;;7.47;76.86
36502;BME280;25393;46.108;3.390;2023-04-10T03:03:39;98203.22;;;7.39;77.29
36502;BME280;25393;46.108;3.390;2023-04-10T03:06:08;98197.34;;;7.18;77.48
36502;BME280;25393;46.108;3.390;2023-04-10T03:08:35;98211.31;;;7.28;77.58
36502;BME280;25393;46.108;3.390;2023-04-10T03:11:01;98208.06;;;7.17;77.71
36502;BME280;25393;46.108;3.390;2023-04-10T03:13:28;98210.53;;;7.18;78.29
36502;BME280;25393;46.108;3.390;2023-04-10T03:15:55;98213.31;;;7.17;77.72
36502;BME280;25393;46.108;3.390;2023-04-10T03:18:21;98204.44;;;7.08;78.77
36502;BME280;25393;46.108;3.390;2023-04-10T03:20:48;98204.88;;;7.13;78.97
36502;BME280;25393;46.108;3.390;2023-04-10T03:23:15;98213.16;;;7.18;78.05
36502;BME280;25393;46.108;3.390;2023-04-10T03:25:41;98209.44;;;7.21;77.79
36502;BME280;25393;46.108;3.390;2023-04-10T03:28:08;98211.59;;;7.35;77.55
36502;BME280;25393;46.108;3.390;2023-04-10T03:30:35;98213.69;;;7.31;77.25
36502;BME280;25393;46.108;3.390;2023-04-10T03:33:02;98205.78;;;7.31;77.54
36502;BME280;25393;46.108;3.390;2023-04-10T03:35:29;98208.56;;;7.30;76.89
36502;BME280;25393;46.108;3.390;2023-04-10T03:37:56;98208.00;;;7.26;77.16
36502;BME280;25393;46.108;3.390;2023-04-10T03:40:22;98213.69;;;7.22;76.55
36502;BME280;25393;46.108;3.390;2023-04-10T03:42:49;98219.38;;;7.27;77.10
36502;BME280;25393;46.108;3.390;2023-04-10T03:45:15;98216.06;;;7.25;76.94
36502;BME280;25393;46.108;3.390;2023-04-10T03:47:42;98208.59;;;7.20;76.75
36502;BME280;25393;46.108;3.390;2023-04-10T03:50:09;98218.75;;;7.06;77.80
36502;BME280;25393;46.108;3.390;2023-04-10T03:52:35;98211.13;;;7.02;77.13
36502;BME280;25393;46.108;3.390;2023-04-10T03:55:02;98213.63;;;7.14;77.35
36502;BME280;25393;46.108;3.390;2023-04-10T03:57:29;98213.41;;;7.25;77.20
36502;BME280;25393;46.108;3.390;2023-04-10T03:59:55;98206.75;;;7.30;77.23
36502;BME280;25393;46.108;3.390;2023-04-10T04:02:22;98212.16;;;7.38;76.16
36502;BME280;25393;46.108;3.390;2023-04-10T04:04:48;98214.06;;;7.36;75.58
36502;BME280;25393;46.108;3.390;2023-04-10T04:07:15;98226.03;;;7.31;76.11
36502;BME280;25393;46.108;3.390;2023-04-10T04:09:42;98221.31;;;7.25;76.47
36502;BME280;25393;46.108;3.390;2023-04-10T04:12:08;98213.63;;;7.14;75.51
36502;BME280;25393;46.108;3.390;2023-04-10T04:14:35;98223.97;;;7.25;76.16
36502;BME280;25393;46.108;3.390;2023-04-10T04:17:01;98225.00;;;7.04;76.72
36502;BME280;25393;46.108;3.390;2023-04-10T04:19:31;98221.41;;;6.86;77.33
36502;BME280;25393;46.108;3.390;2023-04-10T04:22:00;98220.44;;;6.87;77.44
36502;BME280;25393;46.108;3.390;2023-04-10T04:24:27;98215.34;;;6.86;77.83
36502;BME280;25393;46.108;3.390;2023-04-10T04:26:53;98220.16;;;6.90;77.63
36502;BME280;25393;46.108;3.390;2023-04-10T04:29:21;98216.81;;;6.98;77.36
36502;BME280;25393;46.108;3.390;2023-04-10T04:31:48;98218.22;;;7.02;76.56
36502;BME280;25393;46.108;3.390;2023-04-10T04:34:14;98223.31;;;7.13;76.60
36502;BME280;25393;46.108;3.390;2023-04-10T04:36:41;98221.81;;;7.11;76.42
36502;BME280;25393;46.108;3.390;2023-04-10T04:39:08;98220.13;;;7.10;76.56
36502;BME280;25393;46.108;3.390;2023-04-10T04:41:34;98224.69;;;7.08;75.75
36502;BME280;25393;46.108;3.390;2023-04-10T04:44:01;98225.78;;;7.15;75.99
36502;BME280;25393;46.108;3.390;2023-04-10T04:46:28;98226.22;;;7.20;75.40
36502;BME280;25393;46.108;3.390;2023-04-10T04:48:55;98227.44;;;7.25;75.24
36502;BME280;25393;46.108;3.390;2023-04-10T04:51:21;98230.91;;;7.26;74.92
36502;BME280;25393;46.108;3.390;2023-04-10T04:53:48;98226.72;;;7.33;74.57
36502;BME280;25393;46.108;3.390;2023-04-10T04:56:14;98226.59;;;7.25;74.83
36502;BME280;25393;46.108;3.390;2023-04-10T04:58:41;98220.69;;;7.13;75.09
36502;BME280;25393;46.108;3.390;2023-04-10T05:01:08;98221.97;;;6.99;75.90
36502;BME280;25393;46.108;3.390;2023-04-10T05:03:37;98229.16;;;6.97;76.62
36502;BME280;25393;46.108;3.390;2023-04-10T05:06:07;98230.97;;;6.97;77.25
36502;BME280;25393;46.108;3.390;2023-04-10T05:08:36;98226.69;;;6.86;77.80
36502;BME280;25393;46.108;3.390;2023-04-10T05:11:03;98227.81;;;6.84;78.56
36502;BME280;25393;46.108;3.390;2023-04-10T05:13:29;98221.28;;;6.88;77.84
36502;BME280;25393;46.108;3.390;2023-04-10T05:15:56;98229.16;;;6.97;77.75
36502;BME280;25393;46.108;3.390;2023-04-10T05:18:22;98217.38;;;7.01;76.87
36502;BME280;25393;46.108;3.390;2023-04-10T05:20:49;98225.91;;;7.23;79.24
36502;BME280;25393;46.108;3.390;2023-04-10T05:23:16;98226.72;;;7.33;76.63
36502;BME280;25393;46.108;3.390;2023-04-10T05:25:42;98229.06;;;7.36;76.16
36502;BME280;25393;46.108;3.390;2023-04-10T05:28:09;98240.56;;;7.44;76.31
36502;BME280;25393;46.108;3.390;2023-04-10T05:30:40;98232.66;;;7.44;76.21
36502;BME280;25393;46.108;3.390;2023-04-10T05:33:08;98206.88;;;7.29;76.04
36502;BME280;25393;46.108;3.390;2023-04-10T05:35:36;98233.31;;;7.46;76.03
36502;BME280;25393;46.108;3.390;2023-04-10T05:38:10;98204.41;;;7.27;77.11
36502;BME280;25393;46.108;3.390;2023-04-10T05:40:38;98208.81;;;7.36;75.35
36502;BME280;25393;46.108;3.390;2023-04-10T05:43:09;98179.09;;;7.07;76.18
36502;BME280;25393;46.108;3.390;2023-04-10T05:45:43;98186.28;;;7.05;76.73
36502;BME280;25393;46.108;3.390;2023-04-10T05:48:11;98213.31;;;7.17;76.61
36502;BME280;25393;46.108;3.390;2023-04-10T05:50:38;98245.28;;;7.41;76.95
36502;BME280;25393;46.108;3.390;2023-04-10T05:53:12;98248.84;;;7.49;76.30
36502;BME280;25393;46.108;3.390;2023-04-10T05:55:40;98244.88;;;7.36;76.05
36502;BME280;25393;46.108;3.390;2023-04-10T05:58:06;98252.63;;;7.47;76.37
36502;BME280;25393;46.108;3.390;2023-04-10T06:00:36;98256.88;;;7.58;76.27
36502;BME280;25393;46.108;3.390;2023-04-10T06:03:07;98247.66;;;7.71;75.75
36502;BME280;25393;46.108;3.390;2023-04-10T06:05:36;98241.72;;;7.69;75.02
36502;BME280;25393;46.108;3.390;2023-04-10T06:08:04;98244.72;;;7.74;75.07
36502;BME280;25393;46.108;3.390;2023-04-10T06:10:31;98252.66;;;8.01;74.02
36502;BME280;25393;46.108;3.390;2023-04-10T06:12:58;98254.81;;;8.16;73.07
36502;BME280;25393;46.108;3.390;2023-04-10T06:15:24;98260.84;;;8.26;72.93
36502;BME280;25393;46.108;3.390;2023-04-10T06:17:51;98266.25;;;8.34;71.78
36502;BME280;25393;46.108;3.390;2023-04-10T06:20:19;98235.25;;;8.36;71.17
36502;BME280;25393;46.108;3.390;2023-04-10T06:22:45;98252.38;;;8.49;71.46
36502;BME280;25393;46.108;3.390;2023-04-10T06:25:12;98249.34;;;8.62;71.03
36502;BME280;25393;46.108;3.390;2023-04-10T06:27:39;98252.81;;;8.80;70.32
36502;BME280;25393;46.108;3.390;2023-04-10T06:30:07;98259.09;;;8.79;70.31
36502;BME280;25393;46.108;3.390;2023-04-10T06:32:37;98213.41;;;8.69;68.74
36502;BME280;25393;46.108;3.390;2023-04-10T06:35:05;98224.56;;;8.81;68.96
36502;BME280;25393;46.108;3.390;2023-04-10T06:37:33;98221.38;;;8.95;67.99
36502;BME280;25393;46.108;3.390;2023-04-10T06:40:07;98261.41;;;9.26;68.57
36502;BME280;25393;46.108;3.390;2023-04-10T06:42:37;98267.59;;;9.34;69.41
36502;BME280;25393;46.108;3.390;2023-04-10T06:45:07;98265.28;;;9.31;69.30
36502;BME280;25393;46.108;3.390;2023-04-10T06:47:37;98259.28;;;9.29;69.32
36502;BME280;25393;46.108;3.390;2023-04-10T06:50:05;98243.72;;;9.18;69.42
36502;BME280;25393;46.108;3.390;2023-04-10T06:52:32;98244.22;;;9.22;69.94
36502;BME280;25393;46.108;3.390;2023-04-10T06:54:58;98254.69;;;9.31;69.07
36502;BME280;25393;46.108;3.390;2023-04-10T06:57:27;98218.81;;;9.03;69.54
36502;BME280;25393;46.108;3.390;2023-04-10T06:59:54;98211.53;;;9.05;68.85
36502;BME280;25393;46.108;3.390;2023-04-10T07:02:26;98213.25;;;9.14;68.80
36502;BME280;25393;46.108;3.390;2023-04-10T07:04:57;98230.97;;;9.47;68.26
36502;BME280;25393;46.108;3.390;2023-04-10T07:07:35;98214.69;;;9.60;68.13
36502;BME280;25393;46.108;3.390;2023-04-10T07:10:12;98255.09;;;10.12;67.87
36502;BME280;25393;46.108;3.390;2023-04-10T07:12:51;98262.16;;;10.37;66.82
36502;BME280;25393;46.108;3.390;2023-04-10T07:15:20;98225.06;;;10.45;65.56
36502;BME280;25393;46.108;3.390;2023-04-10T07:17:47;98283.28;;;11.03;65.16
36502;BME280;25393;46.108;3.390;2023-04-10T07:20:13;98283.41;;;11.42;63.22
36502;BME280;25393;46.108;3.390;2023-04-10T07:22:40;98269.41;;;11.65;63.23
36502;BME280;25393;46.108;3.390;2023-04-10T07:25:07;98272.63;;;12.07;62.34
36502;BME280;25393;46.108;3.390;2023-04-10T07:27:34;98286.38;;;12.49;58.86
36502;BME280;25393;46.108;3.390;2023-04-10T07:30:00;98273.50;;;12.61;57.02
36502;BME280;25393;46.108;3.390;2023-04-10T07:32:27;98280.38;;;12.78;57.43
36502;BME280;25393;46.108;3.390;2023-04-10T07:34:53;98271.84;;;12.91;58.14
36502;BME280;25393;46.108;3.390;2023-04-10T07:37:20;98282.47;;;13.14;57.29
36502;BME280;25393;46.108;3.390;2023-04-10T07:39:47;98281.53;;;13.29;59.37
36502;BME280;25393;46.108;3.390;2023-04-10T07:42:13;98285.31;;;13.49;59.38
36502;BME280;25393;46.108;3.390;2023-04-10T07:44:40;98279.81;;;13.66;57.53
36502;BME280;25393;46.108;3.390;2023-04-10T07:47:06;98269.00;;;13.67;58.40
36502;BME280;25393;46.108;3.390;2023-04-10T07:49:37;98280.84;;;13.65;59.45
36502;BME280;25393;46.108;3.390;2023-04-10T07:52:07;98274.22;;;13.61;58.42
36502;BME280;25393;46.108;3.390;2023-04-10T07:54:38;98281.75;;;13.57;59.50
36502;BME280;25393;46.108;3.390;2023-04-10T07:57:08;98274.66;;;13.49;59.48
36502;BME280;25393;46.108;3.390;2023-04-10T07:59:34;98269.34;;;13.49;59.28
36502;BME280;25393;46.108;3.390;2023-04-10T08:02:01;98285.97;;;13.66;59.82
36502;BME280;25393;46.108;3.390;2023-04-10T08:04:28;98268.91;;;13.90;60.35
36502;BME280;25393;46.108;3.390;2023-04-10T08:06:55;98280.22;;;14.07;58.50
36502;BME280;25393;46.108;3.390;2023-04-10T08:09:21;98279.47;;;13.98;58.85
36502;BME280;25393;46.108;3.390;2023-04-10T08:11:48;98269.34;;;14.08;60.07
36502;BME280;25393;46.108;3.390;2023-04-10T08:14:15;98274.31;;;14.40;59.20
36502;BME280;25393;46.108;3.390;2023-04-10T08:16:44;98261.56;;;14.57;58.79
36502;BME280;25393;46.108;3.390;2023-04-10T08:19:11;98252.00;;;14.63;58.20
36502;BME280;25393;46.108;3.390;2023-04-10T08:21:37;98260.03;;;14.48;57.79
36502;BME280;25393;46.108;3.390;2023-04-10T08:24:05;98258.38;;;14.47;58.12
36502;BME280;25393;46.108;3.390;2023-04-10T08:26:32;98266.38;;;14.47;57.16
36502;BME280;25393;46.108;3.390;2023-04-10T08:29:01;98252.78;;;14.42;58.32
36502;BME280;25393;46.108;3.390;2023-04-10T08:31:28;98266.06;;;14.57;57.92
36502;BME280;25393;46.108;3.390;2023-04-10T08:33:55;98266.41;;;14.68;58.25
36502;BME280;25393;46.108;3.390;2023-04-10T08:36:23;98270.97;;;14.95;57.02
36502;BME280;25393;46.108;3.390;2023-04-10T08:38:49;98261.91;;;14.90;57.45
36502;BME280;25393;46.108;3.390;2023-04-10T08:41:17;98263.19;;;15.15;58.19
36502;BME280;25393;46.108;3.390;2023-04-10T08:43:44;98269.56;;;15.70;55.06
36502;BME280;25393;46.108;3.390;2023-04-10T08:46:12;98279.47;;;16.04;56.18
36502;BME280;25393;46.108;3.390;2023-04-10T08:49:06;98280.94;;;16.54;52.51
36502;BME280;25393;46.108;3.390;2023-04-10T08:51:42;98270.56;;;17.11;51.14
36502;BME280;25393;46.108;3.390;2023-04-10T08:54:18;98280.50;;;17.76;48.83
36502;BME280;25393;46.108;3.390;2023-04-10T08:56:52;98272.81;;;17.93;47.67
36502;BME280;25393;46.108;3.390;2023-04-10T08:59:19;98279.59;;;18.15;46.99
36502;BME280;25393;46.108;3.390;2023-04-10T09:01:47;98267.25;;;18.59;47.66
36502;BME280;25393;46.108;3.390;2023-04-10T09:04:14;98285.91;;;19.16;44.04
36502;BME280;25393;46.108;3.390;2023-04-10T09:06:42;98260.81;;;19.29;41.12
36502;BME280;25393;46.108;3.390;2023-04-10T09:09:09;98274.69;;;19.26;40.76
36502;BME280;25393;46.108;3.390;2023-04-10T09:14:37;98271.97;;;20.00;40.13
36502;BME280;25393;46.108;3.390;2023-04-10T09:17:17;98293.97;;;20.15;39.34
36502;BME280;25393;46.108;3.390;2023-04-10T09:19:46;98282.44;;;20.08;38.87
36502;BME280;25393;46.108;3.390;2023-04-10T09:22:14;98279.31;;;20.11;38.81
36502;BME280;25393;46.108;3.390;2023-04-10T09:24:43;98276.47;;;20.24;39.12
36502;BME280;25393;46.108;3.390;2023-04-10T09:27:10;98272.56;;;20.75;38.65
36502;BME280;25393;46.108;3.390;2023-04-10T09:29:52;98273.72;;;21.38;37.71
36502;BME280;25393;46.108;3.390;2023-04-10T09:32:43;98274.00;;;21.60;35.35
36502;BME280;25393;46.108;3.390;2023-04-10T09:35:11;98267.53;;;21.84;35.68
36502;BME280;25393;46.108;3.390;2023-04-10T09:37:39;98269.41;;;22.30;36.15
36502;BME280;25393;46.108;3.390;2023-04-10T09:40:19;98270.91;;;23.06;34.04
36502;BME280;25393;46.108;3.390;2023-04-10T09:42:46;98278.19;;;23.22;33.29
36502;BME280;25393;46.108;3.390;2023-04-10T09:45:15;98261.91;;;23.01;33.56
36502;BME280;25393;46.108;3.390;2023-04-10T09:48:05;98283.06;;;22.92;34.27
36502;BME280;25393;46.108;3.390;2023-04-10T09:50:39;98274.25;;;22.68;34.20
36502;BME280;25393;46.108;3.390;2023-04-10T09:53:14;98253.69;;;22.16;35.27
36502;BME280;25393;46.108;3.390;2023-04-10T09:55:42;98266.50;;;21.97;35.42
36502;BME280;25393;46.108;3.390;2023-04-10T09:58:09;98278.78;;;21.70;35.48
36502;BME280;25393;46.108;3.390;2023-04-10T10:00:41;98260.78;;;21.17;35.59
36502;BME280;25393;46.108;3.390;2023-04-10T10:03:12;98259.00;;;20.81;37.44
36502;BME280;25393;46.108;3.390;2023-04-10T10:05:42;98243.78;;;20.57;39.04
36502;BME280;25393;46.108;3.390;2023-04-10T10:08:10;98241.28;;;20.44;41.05
36502;BME280;25393;46.108;3.390;2023-04-10T10:10:52;98244.03;;;20.37;41.18
36502;BME280;25393;46.108;3.390;2023-04-10T10:13:27;98251.59;;;20.29;42.93
36502;BME280;25393;46.108;3.390;2023-04-10T10:19:00;98264.31;;;19.79;41.84
36502;BME280;25393;46.108;3.390;2023-04-10T10:21:32;98266.28;;;19.16;42.33
36502;BME280;25393;46.108;3.390;2023-04-10T10:24:12;98219.47;;;18.74;44.20
36502;BME280;25393;46.108;3.390;2023-04-10T10:26:39;98217.81;;;18.73;43.99
36502;BME280;25393;46.108;3.390;2023-04-10T10:29:07;98249.69;;;18.94;44.10
36502;BME280;25393;46.108;3.390;2023-04-10T10:31:38;98248.81;;;19.00;43.44
36502;BME280;25393;46.108;3.390;2023-04-10T10:34:05;98219.16;;;18.88;44.44
36502;BME280;25393;46.108;3.390;2023-04-10T10:36:39;98255.81;;;19.32;44.76
36502;BME280;25393;46.108;3.390;2023-04-10T10:39:12;98255.59;;;19.34;43.78
36502;BME280;25393;46.108;3.390;2023-04-10T10:41:53;98226.56;;;19.24;43.96
36502;BME280;25393;46.108;3.390;2023-04-10T10:47:14;98227.91;;;20.01;43.65
36502;BME280;25393;46.108;3.390;2023-04-10T10:50:11;98233.72;;;20.34;43.59
36502;BME280;25393;46.108;3.390;2023-04-10T10:52:49;98210.00;;;20.73;42.91
36502;BME280;25393;46.108;3.390;2023-04-10T10:58:08;98179.66;;;22.12;39.78
36502;BME280;25393;46.108;3.390;2023-04-10T11:05:54;98192.53;;;23.39;35.98
36502;BME280;25393;46.108;3.390;2023-04-10T11:08:47;98198.03;;;23.45;35.55
36502;BME280;25393;46.108;3.390;2023-04-10T11:11:16;98170.03;;;23.72;33.13
36502;BME280;25393;46.108;3.390;2023-04-10T11:16:19;98171.34;;;25.42;28.89
36502;BME280;25393;46.108;3.390;2023-04-10T11:21:27;98167.69;;;26.83;27.90
36502;BME280;25393;46.108;3.390;2023-04-10T11:31:32;98155.91;;;27.88;26.05
36502;BME280;25393;46.108;3.390;2023-04-10T11:34:03;98165.81;;;27.34;26.42
36502;BME280;25393;46.108;3.390;2023-04-10T11:36:38;98160.09;;;26.85;27.30
36502;BME280;25393;46.108;3.390;2023-04-10T11:39:06;98162.00;;;26.94;27.10
36502;BME280;25393;46.108;3.390;2023-04-10T11:41:42;98166.81;;;26.67;26.67
36502;BME280;25393;46.108;3.390;2023-04-10T11:44:17;98169.25;;;26.63;28.15
36502;BME280;25393;46.108;3.390;2023-04-10T11:46:46;98166.81;;;26.72;26.85
36502;BME280;25393;46.108;3.390;2023-04-10T11:49:20;98174.31;;;26.29;27.43
36502;BME280;25393;46.108;3.390;2023-04-10T11:51:49;98162.66;;;25.40;29.41
36502;BME280;25393;46.108;3.390;2023-04-10T11:54:26;98175.50;;;24.86;30.00
36502;BME280;25393;46.108;3.390;2023-04-10T11:57:07;98162.13;;;24.09;28.68
36502;BME280;25393;46.108;3.390;2023-04-10T11:59:38;98162.88;;;23.45;32.73
36502;BME280;25393;46.108;3.390;2023-04-10T12:02:12;98164.91;;;22.87;32.37
36502;BME280;25393;46.108;3.390;2023-04-10T12:04:56;98175.69;;;22.71;33.12
36502;BME280;25393;46.108;3.390;2023-04-10T12:07:23;98171.81;;;22.38;32.44
36502;BME280;25393;46.108;3.390;2023-04-10T12:09:57;98161.66;;;22.17;32.14
36502;BME280;25393;46.108;3.390;2023-04-10T12:12:34;98160.28;;;22.15;33.84
36502;BME280;25393;46.108;3.390;2023-04-10T12:15:27;98167.81;;;22.13;34.83
36502;BME280;25393;46.108;3.390;2023-04-10T12:17:54;98166.16;;;22.12;33.29
36502;BME280;25393;46.108;3.390;2023-04-10T12:20:21;98162.97;;;22.15;32.75
36502;BME280;25393;46.108;3.390;2023-04-10T12:22:53;98170.31;;;21.91;31.46
36502;BME280;25393;46.108;3.390;2023-04-10T12:25:21;98167.59;;;21.79;31.94
36502;BME280;25393;46.108;3.390;2023-04-10T12:27:48;98164.47;;;21.71;33.63
36502;BME280;25393;46.108;3.390;2023-04-10T12:30:18;98181.47;;;21.60;33.33
36502;BME280;25393;46.108;3.390;2023-04-10T12:32:50;98174.31;;;21.42;32.69
36502;BME280;25393;46.108;3.390;2023-04-10T12:35:18;98175.63;;;21.28;33.70
36502;BME280;25393;46.108;3.390;2023-04-10T12:37:49;98187.97;;;21.06;34.60
36502;BME280;25393;46.108;3.390;2023-04-10T12:40:17;98181.84;;;20.99;34.87
36502;BME280;25393;46.108;3.390;2023-04-10T12:42:45;98186.06;;;20.94;36.75
36502;BME280;25393;46.108;3.390;2023-04-10T12:45:12;98186.53;;;20.91;38.33
36502;BME280;25393;46.108;3.390;2023-04-10T12:47:47;98190.84;;;20.81;38.22
36502;BME280;25393;46.108;3.390;2023-04-10T12:50:15;98182.13;;;20.67;37.49
36502;BME280;25393;46.108;3.390;2023-04-10T12:53:04;98164.31;;;20.55;35.87
36502;BME280;25393;46.108;3.390;2023-04-10T12:56:00;98185.41;;;20.69;36.54
36502;BME280;25393;46.108;3.390;2023-04-10T12:58:27;98178.19;;;20.52;35.83
36502;BME280;25393;46.108;3.390;2023-04-10T13:00:58;98189.03;;;20.63;35.68
36502;BME280;25393;46.108;3.390;2023-04-10T13:03:25;98188.81;;;20.65;34.32
36502;BME280;25393;46.108;3.390;2023-04-10T13:05:52;98187.31;;;20.69;34.42
36502;BME280;25393;46.108;3.390;2023-04-10T13:08:20;98184.25;;;20.65;35.05
36502;BME280;25393;46.108;3.390;2023-04-10T13:10:47;98179.44;;;20.67;35.92
36502;BME280;25393;46.108;3.390;2023-04-10T13:13:14;98189.19;;;20.80;35.34
36502;BME280;25393;46.108;3.390;2023-04-10T13:15:42;98188.03;;;20.87;35.20
36502;BME280;25393;46.108;3.390;2023-04-10T13:18:09;98187.81;;;21.01;34.30
36502;BME280;25393;46.108;3.390;2023-04-10T13:20:39;98186.06;;;20.94;33.98
36502;BME280;25393;46.108;3.390;2023-04-10T13:23:10;98174.97;;;21.03;33.27
36502;BME280;25393;46.108;3.390;2023-04-10T13:25:38;98150.59;;;21.09;32.26
36502;BME280;25393;46.108;3.390;2023-04-10T13:28:06;98158.16;;;21.42;34.36
36502;BME280;25393;46.108;3.390;2023-04-10T13:30:40;98141.03;;;21.60;32.53
36502;BME280;25393;46.108;3.390;2023-04-10T13:33:10;98139.59;;;21.69;34.68
36502;BME280;25393;46.108;3.390;2023-04-10T13:35:38;98132.16;;;21.87;35.31
36502;BME280;25393;46.108;3.390;2023-04-10T13:38:11;98143.13;;;22.21;35.16
36502;BME280;25393;46.108;3.390;2023-04-10T13:40:38;98136.03;;;22.31;34.51
36502;BME280;25393;46.108;3.390;2023-04-10T13:43:04;98128.72;;;22.44;34.04
36502;BME280;25393;46.108;3.390;2023-04-10T13:45:31;98126.63;;;22.62;35.59
36502;BME280;25393;46.108;3.390;2023-04-10T13:47:59;98119.31;;;22.63;33.62
36502;BME280;25393;46.108;3.390;2023-04-10T13:50:25;98104.91;;;22.57;32.02
36502;BME280;25393;46.108;3.390;2023-04-10T13:52:52;98108.44;;;22.58;32.43
36502;BME280;25393;46.108;3.390;2023-04-10T13:55:19;98102.28;;;22.17;32.61
36502;BME280;25393;46.108;3.390;2023-04-10T13:57:45;98085.81;;;22.02;32.07
36502;BME280;25393;46.108;3.390;2023-04-10T14:00:12;98085.94;;;21.96;32.33